Time;durP1;ratioP1;P1;durP2;ratioP2;P2;SDS_P1;SDS_P2;PMS_P1;PMS_P2;Temp;Humidity;BMP_temperature;BMP_pressure;BME280_temperature;BME280_humidity;BME280_pressure;Samples;Min_cycle;Max_cycle;Signal;HPM_P1;HPM_P2
2021/08/14 00:00:43;;;;;;;6.35;3.28;;;24.70;99.90;;;;;;5003462;28;20200;-71
2021/08/14 00:03:09;;;;;;;4.43;3.27;;;24.70;99.90;;;;;;5002635;28;20196;-74
2021/08/14 00:05:35;;;;;;;6.28;3.40;;;24.70;99.90;;;;;;5001771;28;20511;-73
2021/08/14 00:08:01;;;;;;;5.60;3.58;;;24.70;99.90;;;;;;5003104;28;20212;-75
2021/08/14 00:10:28;;;;;;;5.47;3.50;;;24.60;99.90;;;;;;5004525;28;20596;-73
2021/08/14 00:12:54;;;;;;;4.90;3.53;;;24.60;99.90;;;;;;5000098;28;20296;-73
2021/08/14 00:15:20;;;;;;;6.70;3.58;;;24.60;99.90;;;;;;5002427;28;20196;-74
2021/08/14 00:17:48;;;;;;;5.20;3.70;;;24.60;99.90;;;;;;5002755;28;20268;-75
2021/08/14 00:20:14;;;;;;;5.70;3.40;;;24.50;99.90;;;;;;5000846;28;21065;-74
2021/08/14 00:22:40;;;;;;;6.23;3.07;;;24.50;99.90;;;;;;4988361;28;20189;-74
2021/08/14 00:25:07;;;;;;;9.43;3.70;;;24.50;99.90;;;;;;4999647;28;20300;-73
2021/08/14 00:27:34;;;;;;;6.93;3.67;;;24.50;99.90;;;;;;5002118;28;20189;-73
2021/08/14 00:30:00;;;;;;;9.23;4.07;;;24.60;99.90;;;;;;5004637;28;20697;-74
2021/08/14 00:32:28;;;;;;;5.22;3.42;;;24.60;99.90;;;;;;5001156;28;20204;-73
2021/08/14 00:34:54;;;;;;;6.60;3.40;;;24.50;99.90;;;;;;5004533;28;20189;-73
2021/08/14 00:37:20;;;;;;;4.27;3.10;;;24.50;99.90;;;;;;5004209;28;20215;-74
2021/08/14 00:39:48;;;;;;;9.48;3.17;;;24.50;99.90;;;;;;5000169;28;20331;-73
2021/08/14 00:42:14;;;;;;;7.57;3.40;;;24.40;99.90;;;;;;4997205;28;20189;-73
2021/08/14 00:44:41;;;;;;;5.30;3.72;;;24.40;99.90;;;;;;5000571;28;20190;-72
2021/08/14 00:47:07;;;;;;;5.53;3.42;;;24.40;99.90;;;;;;5018375;28;20631;-73
2021/08/14 00:49:34;;;;;;;7.47;3.40;;;24.40;99.90;;;;;;4998398;28;20224;-74
2021/08/14 00:52:01;;;;;;;3.43;3.10;;;24.30;99.90;;;;;;4997959;28;20224;-74
2021/08/14 00:54:28;;;;;;;8.60;3.20;;;24.30;99.90;;;;;;4992826;28;20189;-73
2021/08/14 00:56:56;;;;;;;5.05;3.17;;;24.30;99.90;;;;;;5002005;28;20280;-74
2021/08/14 00:59:28;;;;;;;5.87;3.00;;;24.30;99.90;;;;;;5002673;28;20626;-72
2021/08/14 01:01:55;;;;;;;4.63;3.17;;;24.30;99.90;;;;;;4998504;28;20181;-72
2021/08/14 01:04:22;;;;;;;5.07;3.10;;;24.30;99.90;;;;;;4985963;28;20243;-74
2021/08/14 01:06:50;;;;;;;4.90;3.17;;;24.30;99.90;;;;;;4986201;28;20217;-75
2021/08/14 01:09:16;;;;;;;7.20;3.17;;;24.30;99.90;;;;;;5001140;28;20204;-73
2021/08/14 01:11:43;;;;;;;5.13;3.10;;;24.20;99.90;;;;;;5003090;28;20200;-74
2021/08/14 01:14:13;;;;;;;5.90;2.93;;;24.20;99.90;;;;;;5001766;28;20196;-73
2021/08/14 01:16:41;;;;;;;5.50;3.13;;;24.20;99.90;;;;;;4999709;28;20588;-74
2021/08/14 01:19:09;;;;;;;4.60;2.90;;;24.20;99.90;;;;;;4995586;28;20200;-73
2021/08/14 01:21:36;;;;;;;6.93;3.10;;;24.10;99.90;;;;;;4983844;28;20185;-74
2021/08/14 01:24:04;;;;;;;4.53;3.00;;;24.10;99.90;;;;;;4992547;28;20312;-73
2021/08/14 01:26:32;;;;;;;5.22;2.85;;;24.10;99.90;;;;;;5002915;28;20231;-73
2021/08/14 01:28:58;;;;;;;4.13;2.85;;;24.10;99.90;;;;;;5002810;28;20212;-74
2021/08/14 01:31:25;;;;;;;8.88;3.10;;;24.10;99.90;;;;;;5000162;28;20220;-73
2021/08/14 01:33:51;;;;;;;3.28;2.78;;;24.10;99.90;;;;;;5002953;28;20685;-73
2021/08/14 01:36:18;;;;;;;5.53;3.10;;;24.10;99.90;;;;;;5004136;28;20197;-73
2021/08/14 01:38:56;;;;;;;3.63;2.73;;;24.10;99.90;;;;;;4996336;28;20189;-74
2021/08/14 01:41:24;;;;;;;3.90;2.75;;;24.20;99.90;;;;;;5000751;28;20502;-73
2021/08/14 01:44:03;;;;;;;5.22;3.15;;;24.20;99.90;;;;;;5003316;28;20227;-74
2021/08/14 01:46:37;;;;;;;3.97;2.87;;;24.30;99.90;;;;;;5002931;28;20781;-75
2021/08/14 01:49:04;;;;;;;6.30;3.00;;;24.40;99.90;;;;;;4999226;28;20232;-73
2021/08/14 01:51:31;;;;;;;3.73;2.87;;;24.40;99.90;;;;;;5000808;28;20197;-74
2021/08/14 01:54:01;;;;;;;4.45;2.95;;;24.30;99.90;;;;;;4996127;28;20196;-73
2021/08/14 01:56:28;;;;;;;4.73;2.60;;;24.30;99.90;;;;;;4979730;28;20799;-74
2021/08/14 01:58:55;;;;;;;5.32;3.30;;;24.30;99.90;;;;;;4997297;28;20307;-73
2021/08/14 02:01:21;;;;;;;4.70;2.90;;;24.30;99.90;;;;;;5002095;28;20216;-73
2021/08/14 02:03:48;;;;;;;5.70;3.17;;;24.30;99.90;;;;;;4999916;28;20186;-72
2021/08/14 02:06:20;;;;;;;5.57;2.87;;;24.30;99.90;;;;;;4997934;28;20217;-73
2021/08/14 02:08:47;;;;;;;8.07;2.93;;;24.20;99.90;;;;;;5000174;28;20212;-73
2021/08/14 02:11:17;;;;;;;7.67;3.10;;;24.20;99.90;;;;;;4999815;28;20189;-74
2021/08/14 02:13:46;;;;;;;6.30;2.80;;;24.20;99.90;;;;;;5001728;28;20185;-74
2021/08/14 02:16:13;;;;;;;4.10;3.13;;;24.20;99.90;;;;;;5001005;28;20193;-73
2021/08/14 02:18:39;;;;;;;5.75;2.92;;;24.20;99.90;;;;;;5000256;28;20838;-73
2021/08/14 02:21:06;;;;;;;4.55;3.10;;;24.20;99.90;;;;;;4999919;28;20192;-73
2021/08/14 02:23:33;;;;;;;5.83;2.90;;;24.20;99.90;;;;;;5003654;28;20485;-74
2021/08/14 02:25:59;;;;;;;3.57;2.80;;;24.20;99.90;;;;;;4991764;28;20196;-72
2021/08/14 02:28:27;;;;;;;5.90;3.20;;;24.20;99.90;;;;;;4998937;28;22555;-74
2021/08/14 02:30:54;;;;;;;6.73;3.23;;;24.10;99.90;;;;;;5002645;28;20205;-73
2021/08/14 02:33:21;;;;;;;6.87;3.30;;;24.10;99.90;;;;;;5004447;28;20192;-73
2021/08/14 02:35:48;;;;;;;5.22;2.88;;;24.10;99.90;;;;;;5005440;28;20684;-73
2021/08/14 02:38:14;;;;;;;3.97;3.13;;;24.10;99.90;;;;;;5003399;28;20250;-74
2021/08/14 02:40:40;;;;;;;7.95;3.13;;;24.10;99.90;;;;;;4987109;28;20181;-74
2021/08/14 02:43:06;;;;;;;5.00;2.83;;;24.10;99.90;;;;;;5003322;28;20184;-74
2021/08/14 02:45:34;;;;;;;5.15;3.00;;;24.10;99.90;;;;;;4984623;28;20235;-75
2021/08/14 02:48:01;;;;;;;4.50;2.90;;;24.10;99.90;;;;;;5007840;28;20213;-74
2021/08/14 02:50:28;;;;;;;6.05;3.00;;;24.10;99.90;;;;;;5001475;28;20193;-73
2021/08/14 02:52:55;;;;;;;5.60;2.93;;;24.10;99.90;;;;;;5001161;28;20296;-74
2021/08/14 02:55:21;;;;;;;5.13;3.08;;;24.10;99.90;;;;;;4999578;28;20185;-75
2021/08/14 02:57:47;;;;;;;7.03;2.87;;;24.10;99.90;;;;;;5002029;28;20219;-73
2021/08/14 03:00:14;;;;;;;4.90;3.07;;;24.10;99.90;;;;;;5000179;28;20276;-73
2021/08/14 03:02:41;;;;;;;3.60;2.85;;;24.00;99.90;;;;;;5004046;28;20189;-73
2021/08/14 03:05:09;;;;;;;5.87;3.17;;;24.00;99.90;;;;;;5005183;28;20224;-72
2021/08/14 03:07:36;;;;;;;5.83;3.07;;;24.10;99.90;;;;;;5004675;28;20909;-72
2021/08/14 03:10:04;;;;;;;4.13;2.67;;;24.10;99.90;;;;;;5001249;28;20188;-75
2021/08/14 03:12:31;;;;;;;6.73;3.30;;;24.10;99.90;;;;;;5004165;28;20592;-74
2021/08/14 03:14:57;;;;;;;3.80;2.73;;;24.10;99.90;;;;;;4989562;28;20188;-74
2021/08/14 03:17:24;;;;;;;3.08;2.70;;;24.10;99.90;;;;;;5002619;28;20189;-74
2021/08/14 03:19:50;;;;;;;6.90;2.92;;;24.20;99.90;;;;;;5000286;28;20372;-74
2021/08/14 03:22:16;;;;;;;5.93;3.30;;;24.10;99.90;;;;;;4989831;28;20205;-73
2021/08/14 03:24:43;;;;;;;5.63;2.75;;;24.10;99.90;;;;;;5005300;28;20181;-73
2021/08/14 03:27:09;;;;;;;5.67;2.90;;;24.10;99.90;;;;;;4997812;28;20226;-73
2021/08/14 03:29:35;;;;;;;5.17;2.90;;;24.10;99.90;;;;;;4981340;28;20593;-74
2021/08/14 03:32:01;;;;;;;5.60;2.73;;;24.10;99.90;;;;;;5005803;28;20196;-73
2021/08/14 03:34:28;;;;;;;12.27;3.55;;;24.20;99.90;;;;;;5003280;28;20194;-74
2021/08/14 03:36:54;;;;;;;5.70;3.15;;;24.20;99.90;;;;;;5003185;28;20193;-74
2021/08/14 03:39:21;;;;;;;7.57;3.17;;;24.10;99.90;;;;;;5005953;28;20192;-75
2021/08/14 03:41:47;;;;;;;7.05;3.20;;;24.10;99.90;;;;;;5007203;28;20327;-73
2021/08/14 03:44:13;;;;;;;7.10;3.42;;;24.10;99.90;;;;;;5004977;28;20201;-73
2021/08/14 03:46:39;;;;;;;6.07;3.33;;;24.20;99.90;;;;;;5015672;28;20190;-73
2021/08/14 03:49:05;;;;;;;10.17;3.23;;;24.20;99.90;;;;;;5004110;28;20252;-73
2021/08/14 03:51:32;;;;;;;4.70;3.13;;;24.20;99.90;;;;;;5010297;28;20177;-74
2021/08/14 03:53:58;;;;;;;5.63;3.20;;;24.20;99.90;;;;;;5008779;28;20281;-74
2021/08/14 03:56:24;;;;;;;3.80;2.95;;;24.30;99.90;;;;;;5007693;28;20185;-74
2021/08/14 03:58:50;;;;;;;5.50;3.20;;;24.30;99.90;;;;;;4998058;28;20282;-73
2021/08/14 04:01:17;;;;;;;6.53;3.40;;;24.30;99.90;;;;;;5009107;28;20193;-72
2021/08/14 04:03:43;;;;;;;5.35;3.42;;;24.30;99.90;;;;;;5008756;28;20760;-74
2021/08/14 04:06:09;;;;;;;4.57;2.80;;;24.40;99.90;;;;;;5009803;28;20199;-74
2021/08/14 04:08:36;;;;;;;4.65;2.88;;;24.40;99.90;;;;;;5001056;28;20216;-73
2021/08/14 04:11:12;;;;;;;5.03;2.95;;;24.40;99.90;;;;;;5001026;28;20180;-72
2021/08/14 04:13:39;;;;;;;6.10;3.43;;;24.40;99.90;;;;;;5011600;28;20190;-75
2021/08/14 04:16:05;;;;;;;3.93;2.80;;;24.40;99.90;;;;;;5018443;28;20193;-73
2021/08/14 04:18:31;;;;;;;6.20;2.83;;;24.40;99.90;;;;;;5004560;28;20187;-74
2021/08/14 04:20:57;;;;;;;6.65;3.10;;;24.50;99.90;;;;;;5010411;28;20262;-73
2021/08/14 04:23:24;;;;;;;7.27;3.30;;;24.50;99.90;;;;;;5010073;28;20188;-74
2021/08/14 04:25:50;;;;;;;3.78;3.25;;;24.50;99.90;;;;;;5009741;28;20192;-73
2021/08/14 04:28:16;;;;;;;4.22;3.20;;;24.50;99.90;;;;;;5005199;28;20212;-71
2021/08/14 04:30:43;;;;;;;6.03;3.37;;;24.50;99.90;;;;;;4982602;28;20607;-73
2021/08/14 04:33:09;;;;;;;6.63;3.43;;;24.50;99.90;;;;;;5008502;28;20588;-73
2021/08/14 04:35:36;;;;;;;5.13;3.28;;;24.50;99.90;;;;;;5025411;28;20197;-72
2021/08/14 04:38:02;;;;;;;5.63;3.03;;;24.50;99.90;;;;;;5007240;28;20187;-74
2021/08/14 04:40:28;;;;;;;5.57;3.20;;;24.60;99.90;;;;;;5010261;28;20192;-74
2021/08/14 04:42:56;;;;;;;6.23;3.30;;;24.60;99.90;;;;;;5018146;28;20246;-74
2021/08/14 04:45:24;;;;;;;8.10;3.40;;;24.70;99.90;;;;;;5008871;28;20908;-73
2021/08/14 04:47:51;;;;;;;5.37;3.10;;;24.70;99.90;;;;;;5009659;28;20205;-74
2021/08/14 04:50:18;;;;;;;4.53;3.10;;;24.80;99.90;;;;;;5008473;28;20201;-74
2021/08/14 04:52:44;;;;;;;3.55;2.75;;;24.80;99.90;;;;;;5008901;28;20185;-75
2021/08/14 04:55:11;;;;;;;4.73;2.80;;;24.90;99.90;;;;;;5017298;28;20585;-74
2021/08/14 04:57:37;;;;;;;5.27;2.70;;;24.90;99.90;;;;;;5009916;28;20234;-74
2021/08/14 05:00:06;;;;;;;6.18;3.20;;;24.90;99.90;;;;;;4998065;28;20258;-73
2021/08/14 05:02:32;;;;;;;6.07;3.25;;;25.00;99.90;;;;;;5006868;28;20192;-72
2021/08/14 05:04:58;;;;;;;4.32;2.97;;;25.00;99.90;;;;;;5008775;28;20184;-74
2021/08/14 05:07:25;;;;;;;5.55;3.25;;;25.10;99.90;;;;;;4993102;28;20193;-73
2021/08/14 05:09:52;;;;;;;4.72;3.05;;;25.10;99.90;;;;;;5016650;28;20217;-75
2021/08/14 05:12:18;;;;;;;4.18;2.90;;;25.10;99.90;;;;;;4991072;28;20509;-73
2021/08/14 05:14:45;;;;;;;4.53;3.08;;;25.20;99.90;;;;;;5007187;28;20202;-73
2021/08/14 05:17:11;;;;;;;5.57;3.17;;;25.20;99.90;;;;;;5001495;28;20200;-73
2021/08/14 05:19:37;;;;;;;6.00;3.63;;;25.30;99.90;;;;;;5007508;28;20653;-73
2021/08/14 05:22:04;;;;;;;5.15;3.10;;;25.30;99.90;;;;;;5016586;28;20227;-72
2021/08/14 05:24:30;;;;;;;3.97;3.15;;;25.40;99.90;;;;;;5011079;28;20276;-73
2021/08/14 05:26:56;;;;;;;5.85;3.67;;;25.40;99.90;;;;;;4991891;28;20192;-73
2021/08/14 05:29:23;;;;;;;3.35;2.95;;;25.50;99.90;;;;;;5006475;28;20220;-75
2021/08/14 05:31:49;;;;;;;6.05;3.22;;;25.50;99.90;;;;;;4980994;28;20795;-72
2021/08/14 05:34:15;;;;;;;6.18;3.40;;;25.50;99.90;;;;;;5021875;28;20279;-73
2021/08/14 05:36:42;;;;;;;5.38;3.30;;;25.60;99.90;;;;;;5009421;28;20196;-73
2021/08/14 05:39:08;;;;;;;4.70;3.15;;;25.60;99.90;;;;;;5006239;28;20545;-73
2021/08/14 05:41:39;;;;;;;4.00;3.40;;;25.60;99.90;;;;;;4992095;28;20897;-72
2021/08/14 05:44:07;;;;;;;5.15;3.00;;;25.70;99.90;;;;;;5007087;28;20947;-73
2021/08/14 05:46:34;;;;;;;3.85;2.90;;;25.70;99.90;;;;;;5006716;28;20270;-73
2021/08/14 05:49:00;;;;;;;6.97;3.42;;;25.80;99.90;;;;;;5005269;28;20224;-73
2021/08/14 05:51:26;;;;;;;5.25;3.15;;;25.90;99.90;;;;;;5023207;28;20204;-73
2021/08/14 05:53:53;;;;;;;7.57;3.65;;;25.90;99.90;;;;;;5024436;28;20192;-74
2021/08/14 05:56:19;;;;;;;4.93;3.33;;;26.10;99.90;;;;;;5008747;28;20195;-74
2021/08/14 05:58:45;;;;;;;8.27;3.55;;;26.10;99.90;;;;;;5006791;28;20253;-73
2021/08/14 06:01:12;;;;;;;9.50;3.60;;;26.30;99.90;;;;;;5002036;28;20219;-73
2021/08/14 06:03:38;;;;;;;6.85;3.58;;;26.40;99.90;;;;;;5001700;28;20227;-73
2021/08/14 06:06:04;;;;;;;4.88;2.88;;;26.40;99.90;;;;;;5009756;28;20216;-74
2021/08/14 06:08:31;;;;;;;10.18;3.53;;;26.40;99.90;;;;;;5012482;28;20210;-73
2021/08/14 06:10:58;;;;;;;6.97;3.45;;;26.30;99.90;;;;;;5010900;28;20740;-72
2021/08/14 06:13:25;;;;;;;8.30;3.25;;;26.60;99.90;;;;;;5012081;28;20180;-73
2021/08/14 06:15:51;;;;;;;8.00;3.33;;;26.60;99.90;;;;;;5009946;28;20180;-74
2021/08/14 06:18:17;;;;;;;4.82;3.20;;;26.80;99.90;;;;;;5010362;28;20499;-72
2021/08/14 06:20:44;;;;;;;5.32;2.85;;;26.70;99.90;;;;;;5010931;28;20195;-70
2021/08/14 06:23:12;;;;;;;4.50;3.55;;;26.70;99.90;;;;;;5018710;28;20220;-74
2021/08/14 06:25:39;;;;;;;4.28;2.80;;;26.90;99.90;;;;;;5012711;28;20200;-74
2021/08/14 06:28:05;;;;;;;7.03;3.08;;;26.90;99.90;;;;;;5012095;28;20311;-74
2021/08/14 06:30:34;;;;;;;4.78;3.33;;;27.00;99.40;;;;;;5013125;28;20196;-74
2021/08/14 06:33:00;;;;;;;10.80;3.67;;;26.90;99.90;;;;;;5000160;28;20691;-74
2021/08/14 06:35:26;;;;;;;5.90;3.22;;;27.20;99.60;;;;;;5003230;28;20779;-74
2021/08/14 06:37:54;;;;;;;5.20;3.30;;;27.40;99.20;;;;;;5013457;28;20199;-75
2021/08/14 06:40:20;;;;;;;9.20;3.30;;;27.50;98.60;;;;;;5010399;28;20185;-75
2021/08/14 06:42:47;;;;;;;7.93;3.15;;;27.70;98.40;;;;;;5009744;28;20198;-74
2021/08/14 06:45:13;;;;;;;6.35;3.33;;;27.80;98.60;;;;;;5011688;28;20211;-74
2021/08/14 06:47:39;;;;;;;5.57;3.30;;;27.70;99.80;;;;;;5009233;28;20189;-74
2021/08/14 06:50:07;;;;;;;5.63;3.65;;;27.80;98.90;;;;;;4988195;28;20216;-74
2021/08/14 06:52:35;;;;;;;11.15;3.17;;;27.80;99.40;;;;;;5012564;28;20650;-74
2021/08/14 06:55:04;;;;;;;11.07;3.20;;;28.00;97.60;;;;;;5011075;28;20187;-74
2021/08/14 06:57:30;;;;;;;5.95;3.25;;;28.20;97.60;;;;;;5012839;28;20199;-74
2021/08/14 06:59:58;;;;;;;10.85;3.35;;;28.20;98.00;;;;;;5024520;28;20223;-73
2021/08/14 07:02:24;;;;;;;8.60;3.40;;;28.20;97.90;;;;;;5003284;28;21633;-73
2021/08/14 07:04:50;;;;;;;6.78;3.55;;;28.10;98.30;;;;;;5003324;28;20207;-74
2021/08/14 07:07:17;;;;;;;12.60;3.40;;;28.30;98.20;;;;;;5003640;28;20197;-74
2021/08/14 07:09:45;;;;;;;8.43;3.63;;;28.20;98.20;;;;;;5000446;28;20224;-72
2021/08/14 07:12:13;;;;;;;5.68;3.75;;;28.50;98.70;;;;;;5006115;28;20192;-72
2021/08/14 07:14:41;;;;;;;7.10;3.40;;;28.70;97.80;;;;;;5012368;28;20958;-73
2021/08/14 07:17:08;;;;;;;10.60;3.95;;;28.80;98.30;;;;;;5002406;28;20200;-74
2021/08/14 07:19:34;;;;;;;6.15;3.25;;;28.70;98.90;;;;;;5010216;28;20224;-74
2021/08/14 07:22:00;;;;;;;10.98;3.85;;;28.50;99.20;;;;;;5010567;28;20195;-74
2021/08/14 07:24:27;;;;;;;9.02;3.67;;;28.70;97.90;;;;;;5009476;28;20197;-74
2021/08/14 07:26:54;;;;;;;6.82;3.60;;;28.80;98.20;;;;;;5012423;28;20196;-73
2021/08/14 07:29:20;;;;;;;8.10;3.13;;;29.10;97.80;;;;;;5011013;28;20213;-73
2021/08/14 07:31:46;;;;;;;7.97;3.63;;;29.20;98.10;;;;;;5026356;28;20201;-74
2021/08/14 07:34:13;;;;;;;11.77;3.45;;;29.20;97.00;;;;;;5002575;28;20203;-73
2021/08/14 07:36:39;;;;;;;8.13;3.53;;;29.20;97.40;;;;;;5005032;28;20893;-74
2021/08/14 07:39:06;;;;;;;6.63;3.22;;;29.50;96.70;;;;;;5007636;28;20199;-74
2021/08/14 07:41:33;;;;;;;7.63;3.47;;;29.60;96.70;;;;;;5010069;28;20298;-74
2021/08/14 07:43:59;;;;;;;6.65;3.35;;;29.40;97.20;;;;;;5007206;28;20204;-71
2021/08/14 07:46:25;;;;;;;10.13;3.78;;;29.40;97.50;;;;;;5009387;28;20184;-71
2021/08/14 07:48:51;;;;;;;9.93;3.53;;;29.60;95.90;;;;;;5006776;28;20216;-73
2021/08/14 07:51:18;;;;;;;6.40;3.33;;;30.00;97.10;;;;;;4994629;28;20177;-73
2021/08/14 07:53:45;;;;;;;4.97;3.10;;;30.00;97.40;;;;;;5010660;28;20188;-73
2021/08/14 07:56:13;;;;;;;7.07;3.58;;;30.00;98.00;;;;;;4991646;28;20697;-73
2021/08/14 07:58:39;;;;;;;9.05;3.40;;;30.00;98.40;;;;;;5010711;28;20208;-75
2021/08/14 08:01:06;;;;;;;7.22;3.25;;;29.90;99.60;;;;;;5006061;28;20811;-75
2021/08/14 08:03:33;;;;;;;7.75;3.92;;;30.10;99.30;;;;;;5012280;28;20608;-74
2021/08/14 08:05:59;;;;;;;8.35;3.97;;;30.20;98.60;;;;;;4997988;28;20200;-74
2021/08/14 08:08:25;;;;;;;7.35;3.67;;;30.40;97.90;;;;;;5007021;28;20241;-73
2021/08/14 08:10:52;;;;;;;8.38;3.40;;;30.40;98.80;;;;;;5026038;28;20181;-73
2021/08/14 08:13:18;;;;;;;5.38;3.60;;;30.40;98.10;;;;;;5007850;28;20197;-73
2021/08/14 08:15:45;;;;;;;6.75;3.28;;;30.40;98.30;;;;;;5016844;28;20277;-73
2021/08/14 08:18:12;;;;;;;8.02;3.67;;;30.40;98.60;;;;;;5009512;28;20239;-75
2021/08/14 08:20:39;;;;;;;10.50;3.53;;;30.50;98.00;;;;;;5008369;28;20263;-73
2021/08/14 08:23:06;;;;;;;13.65;3.95;;;30.50;96.80;;;;;;5006756;28;20262;-73
2021/08/14 08:25:33;;;;;;;6.97;3.45;;;30.70;95.60;;;;;;5006772;28;20188;-73
2021/08/14 08:28:03;;;;;;;9.82;4.00;;;30.90;96.60;;;;;;5009151;28;20267;-73
2021/08/14 08:30:31;;;;;;;6.93;3.22;;;30.90;97.40;;;;;;5024208;28;20215;-73
2021/08/14 08:32:57;;;;;;;9.90;3.83;;;31.00;98.30;;;;;;5009633;28;21052;-71
2021/08/14 08:35:24;;;;;;;6.53;3.20;;;31.00;98.30;;;;;;5019977;28;20188;-72
2021/08/14 08:37:51;;;;;;;7.90;3.58;;;31.00;98.20;;;;;;4998949;28;21344;-71
2021/08/14 08:40:19;;;;;;;8.65;3.60;;;30.90;98.70;;;;;;4989055;28;20183;-74
2021/08/14 08:42:47;;;;;;;4.57;3.15;;;31.20;97.80;;;;;;5007271;28;20196;-76
2021/08/14 08:45:15;;;;;;;9.45;3.50;;;31.20;97.40;;;;;;5008567;28;20692;-73
2021/08/14 08:47:44;;;;;;;10.50;3.25;;;31.30;97.60;;;;;;5024202;28;20185;-72
2021/08/14 08:50:13;;;;;;;8.63;3.40;;;31.40;98.00;;;;;;5005886;28;20238;-73
2021/08/14 08:52:42;;;;;;;8.05;3.55;;;31.30;97.30;;;;;;5006974;28;20193;-73
2021/08/14 08:55:13;;;;;;;4.85;2.97;;;31.40;96.10;;;;;;5006364;28;20189;-73
2021/08/14 08:57:39;;;;;;;5.47;3.83;;;31.50;95.70;;;;;;5008614;28;20212;-74
2021/08/14 09:00:09;;;;;;;9.95;3.53;;;31.40;96.50;;;;;;5007193;28;22041;-72
2021/08/14 09:02:36;;;;;;;5.97;3.08;;;31.40;96.30;;;;;;4991694;28;20279;-72
2021/08/14 09:05:13;;;;;;;6.68;3.63;;;31.30;95.20;;;;;;5024682;28;20201;-73
2021/08/14 09:07:41;;;;;;;5.93;3.13;;;31.60;93.90;;;;;;5012755;28;20200;-72
2021/08/14 09:10:19;;;;;;;7.32;3.15;;;31.90;92.80;;;;;;4999593;28;20196;-74
2021/08/14 09:12:46;;;;;;;7.43;3.00;;;32.00;93.10;;;;;;5006070;28;20192;-74
2021/08/14 09:15:35;;;;;;;10.43;3.58;;;31.80;91.70;;;;;;5009672;28;20555;-73
2021/08/14 09:18:04;;;;;;;7.85;3.53;;;31.90;92.70;;;;;;5008132;28;20204;-73
2021/08/14 09:20:33;;;;;;;10.27;3.10;;;32.10;83.10;;;;;;5007448;28;20212;-73
2021/08/14 09:23:02;;;;;;;5.40;3.17;;;32.20;86.00;;;;;;5017091;28;20243;-72
2021/08/14 09:25:53;;;;;;;6.65;2.70;;;32.20;87.10;;;;;;5009016;28;20231;-73
2021/08/14 09:28:33;;;;;;;7.53;3.25;;;32.30;77.70;;;;;;5009102;28;20266;-74
2021/08/14 09:31:03;;;;;;;7.43;3.38;;;32.20;80.40;;;;;;5008381;28;20188;-74
2021/08/14 09:33:34;;;;;;;5.38;2.78;;;32.40;85.80;;;;;;5008824;28;20762;-72
2021/08/14 09:36:09;;;;;;;5.80;2.65;;;32.60;77.40;;;;;;5009006;28;20312;-71
2021/08/14 09:38:45;;;;;;;6.78;2.60;;;32.80;78.70;;;;;;4996523;28;20744;-73
2021/08/14 09:41:14;;;;;;;4.53;2.75;;;33.10;77.80;;;;;;5006986;28;20196;-72
2021/08/14 09:43:41;;;;;;;7.40;2.90;;;33.20;80.50;;;;;;5005185;28;20207;-71
2021/08/14 09:46:09;;;;;;;9.70;3.28;;;33.10;79.50;;;;;;4983097;28;20195;-73
2021/08/14 09:48:36;;;;;;;4.75;2.75;;;33.30;81.20;;;;;;5007480;28;20220;-72
2021/08/14 09:51:03;;;;;;;3.95;2.70;;;33.30;77.60;;;;;;5007341;28;20201;-74
2021/08/14 09:53:31;;;;;;;6.20;3.20;;;33.20;73.30;;;;;;5007411;28;20904;-72
2021/08/14 09:56:11;;;;;;;6.20;2.83;;;33.40;71.10;;;;;;5007004;28;20239;-72
2021/08/14 09:58:40;;;;;;;14.50;3.15;;;33.30;69.60;;;;;;5022605;28;20669;-74
2021/08/14 10:01:09;;;;;;;43.38;4.38;;;33.40;74.40;;;;;;5007443;28;20201;-73
2021/08/14 10:03:36;;;;;;;5.82;2.47;;;33.90;72.40;;;;;;5020198;28;20204;-73
2021/08/14 10:06:08;;;;;;;4.03;2.80;;;34.60;67.90;;;;;;4990696;28;20230;-73
2021/08/14 10:08:35;;;;;;;8.23;2.97;;;34.10;69.80;;;;;;4992164;28;20255;-73
2021/08/14 10:11:07;;;;;;;6.43;2.80;;;33.80;69.50;;;;;;4996016;28;20181;-72
2021/08/14 10:13:37;;;;;;;4.20;2.85;;;33.60;70.90;;;;;;5016940;28;20188;-73
2021/08/14 10:16:05;;;;;;;4.47;2.70;;;33.70;70.50;;;;;;5007610;28;20192;-72
2021/08/14 10:18:34;;;;;;;4.38;2.60;;;34.10;68.50;;;;;;5006110;28;20193;-72
2021/08/14 10:21:02;;;;;;;4.63;2.35;;;34.60;69.40;;;;;;5006275;28;20847;-73
2021/08/14 10:23:28;;;;;;;6.95;2.63;;;34.80;63.40;;;;;;5007005;28;20195;-73
2021/08/14 10:26:08;;;;;;;5.32;2.38;;;34.90;64.10;;;;;;5022761;28;20641;-73
2021/08/14 10:28:53;;;;;;;4.13;2.65;;;34.90;63.50;;;;;;5007292;28;20212;-72
2021/08/14 10:31:31;;;;;;;4.05;2.80;;;34.90;64.20;;;;;;5007710;28;20216;-71
2021/08/14 10:34:20;;;;;;;4.00;2.47;;;35.30;62.40;;;;;;5008311;28;20185;-72
2021/08/14 10:36:49;;;;;;;5.63;2.53;;;36.30;59.50;;;;;;5006246;28;20184;-72
2021/08/14 10:39:35;;;;;;;3.30;2.80;;;38.30;60.30;;;;;;5001824;28;20549;-73
2021/08/14 10:42:04;;;;;;;6.18;2.55;;;38.40;57.90;;;;;;5000531;28;20212;-73
2021/08/14 10:44:48;;;;;;;3.67;2.42;;;39.20;53.00;;;;;;5003703;28;20192;-71
2021/08/14 10:47:32;;;;;;;8.32;3.05;;;37.40;54.70;;;;;;4995324;28;20215;-73
2021/08/14 10:49:59;;;;;;;7.32;2.78;;;36.10;54.90;;;;;;5000135;28;20225;-73
2021/08/14 10:52:37;;;;;;;5.65;2.80;;;35.60;54.50;;;;;;5003817;28;20204;-73
2021/08/14 10:55:10;;;;;;;9.80;2.92;;;35.30;57.30;;;;;;5000235;28;20346;-72
2021/08/14 10:57:42;;;;;;;3.97;2.85;;;35.00;57.90;;;;;;5000543;28;20193;-71
2021/08/14 11:00:18;;;;;;;4.40;2.80;;;34.90;59.00;;;;;;4986634;28;20217;-72
2021/08/14 11:03:02;;;;;;;6.03;2.75;;;34.60;59.10;;;;;;5005062;28;20265;-71
2021/08/14 11:05:28;;;;;;;6.10;2.50;;;34.50;58.70;;;;;;5003552;28;20192;-71
2021/08/14 11:07:55;;;;;;;5.50;2.70;;;34.40;62.30;;;;;;5007749;28;20919;-73
2021/08/14 11:10:40;;;;;;;5.80;2.63;;;34.50;58.60;;;;;;4998164;28;20192;-72
2021/08/14 11:13:31;;;;;;;5.18;2.90;;;34.50;60.20;;;;;;5017298;28;20196;-71
2021/08/14 11:15:59;;;;;;;9.07;3.20;;;34.30;58.90;;;;;;5001662;28;20189;-72
2021/08/14 11:18:53;;;;;;;3.75;2.67;;;34.40;59.30;;;;;;5004101;28;20209;-72
2021/08/14 11:21:41;;;;;;;4.85;2.80;;;34.50;57.90;;;;;;4988811;28;20200;-73
2021/08/14 11:24:07;;;;;;;4.55;3.15;;;34.50;57.90;;;;;;5003735;28;20192;-72
2021/08/14 11:26:39;;;;;;;4.20;2.67;;;34.50;59.20;;;;;;5003364;28;20673;-72
2021/08/14 11:29:08;;;;;;;3.80;2.95;;;34.40;58.80;;;;;;4997968;28;20752;-72
2021/08/14 11:31:35;;;;;;;8.77;2.90;;;34.50;58.50;;;;;;4985797;28;20185;-73
2021/08/14 11:34:13;;;;;;;4.05;2.75;;;34.40;58.20;;;;;;5003127;28;20685;-71
2021/08/14 11:36:41;;;;;;;5.93;2.67;;;34.30;58.50;;;;;;4985320;28;20192;-72
2021/08/14 11:39:09;;;;;;;5.68;2.70;;;34.30;58.10;;;;;;5003341;28;20277;-73
2021/08/14 11:41:35;;;;;;;7.28;2.80;;;34.10;59.60;;;;;;4998926;28;20916;-72
2021/08/14 11:44:07;;;;;;;5.80;2.80;;;34.20;59.80;;;;;;5002393;28;20188;-72
2021/08/14 11:46:33;;;;;;;8.75;2.60;;;34.20;59.50;;;;;;5002697;28;20193;-72
2021/08/14 11:49:03;;;;;;;3.47;2.67;;;34.20;58.20;;;;;;5001470;28;20227;-73
2021/08/14 11:51:31;;;;;;;5.10;2.60;;;34.10;57.20;;;;;;5003832;28;20193;-72
2021/08/14 11:54:10;;;;;;;5.40;2.72;;;34.20;59.00;;;;;;5002050;28;20193;-72
2021/08/14 11:56:39;;;;;;;6.93;2.90;;;34.30;58.20;;;;;;5002783;28;20185;-74
2021/08/14 11:59:06;;;;;;;4.70;2.75;;;34.30;59.40;;;;;;5002006;28;20207;-73
2021/08/14 12:01:32;;;;;;;5.57;2.72;;;34.30;58.60;;;;;;5006589;28;20201;-71
2021/08/14 12:04:01;;;;;;;3.30;2.53;;;34.20;62.00;;;;;;5003433;28;20685;-72
2021/08/14 12:06:30;;;;;;;5.07;3.00;;;34.10;59.30;;;;;;5005723;28;21206;-73
2021/08/14 12:09:00;;;;;;;4.43;2.80;;;34.20;58.40;;;;;;5001618;28;20216;-71
2021/08/14 12:11:28;;;;;;;9.57;3.03;;;34.10;58.80;;;;;;4999522;28;20308;-72
2021/08/14 12:14:18;;;;;;;6.70;2.83;;;34.10;59.00;;;;;;4999194;28;20196;-71
2021/08/14 12:17:06;;;;;;;3.65;2.60;;;33.80;60.10;;;;;;5003662;28;20353;-72
2021/08/14 12:19:32;;;;;;;5.13;2.60;;;34.00;58.40;;;;;;4999333;28;20204;-73
2021/08/14 12:22:14;;;;;;;4.97;2.63;;;34.10;57.90;;;;;;5002387;28;20205;-71
2021/08/14 12:24:45;;;;;;;10.05;2.72;;;33.80;60.60;;;;;;5000877;28;20192;-72
2021/08/14 12:27:34;;;;;;;4.75;2.60;;;33.60;60.20;;;;;;5005457;28;20181;-71
2021/08/14 12:30:22;;;;;;;5.57;2.72;;;34.20;56.80;;;;;;5000190;28;20248;-72
2021/08/14 12:32:53;;;;;;;6.03;2.88;;;34.00;58.80;;;;;;4998491;28;20265;-72
2021/08/14 12:35:25;;;;;;;8.27;2.70;;;34.10;57.50;;;;;;5013243;28;20286;-72
2021/08/14 12:37:52;;;;;;;4.25;2.83;;;34.20;56.00;;;;;;5001859;28;20196;-72
2021/08/14 12:40:23;;;;;;;4.90;2.65;;;34.20;57.70;;;;;;4998640;28;20682;-72
2021/08/14 12:42:50;;;;;;;10.70;2.83;;;34.20;57.90;;;;;;4999276;28;20189;-72
2021/08/14 12:45:24;;;;;;;3.35;2.80;;;34.30;58.00;;;;;;5000514;28;20193;-72
2021/08/14 12:47:53;;;;;;;5.90;2.40;;;34.10;58.20;;;;;;5001888;28;20287;-72
2021/08/14 12:50:27;;;;;;;4.22;2.70;;;34.00;57.20;;;;;;5002731;28;20542;-72
2021/08/14 12:53:05;;;;;;;6.88;2.70;;;34.20;57.20;;;;;;5002884;28;20192;-72